Time;durP1;ratioP1;P1;durP2;ratioP2;P2;SDS_P1;SDS_P2;PMS_P1;PMS_P2;Temp;Humidity;BMP_temperature;BMP_pressure;BME280_temperature;BME280_humidity;BME280_pressure;Samples;Min_cycle;Max_cycle;Signal;HPM_P1;HPM_P2
2022/04/03 00:00:20;;;;;;;62.42;7.80;;;;;;;18.46;36.36;101018.25;2079690;28;20091;-79
2022/04/03 00:01:45;;;;;;;67.78;7.18;;;;;;;18.44;36.60;101021.84;2068798;28;20133;-79
2022/04/03 00:03:08;;;;;;;75.65;10.02;;;;;;;18.38;36.52;101024.59;2066343;28;20042;-76
2022/04/03 00:04:31;;;;;;;53.70;8.55;;;;;;;18.34;36.66;101029.09;2066643;28;20076;-76
2022/04/03 00:05:54;;;;;;;61.72;7.03;;;;;;;18.30;36.89;101022.91;2072298;28;20517;-76
2022/04/03 00:07:16;;;;;;;73.78;9.70;;;;;;;18.27;37.01;101025.59;2068980;28;20100;-76
2022/04/03 00:08:40;;;;;;;40.90;6.68;;;;;;;18.23;37.01;101029.22;2066229;28;20473;-79
2022/04/03 00:10:02;;;;;;;67.75;9.05;;;;;;;18.20;37.16;101026.56;2083212;28;20509;-77
2022/04/03 00:11:25;;;;;;;43.85;6.32;;;;;;;18.17;37.21;101021.28;2070840;28;20046;-77
2022/04/03 00:12:47;;;;;;;59.03;7.97;;;;;;;18.17;37.25;101015.03;2073796;28;20845;-77
2022/04/03 00:14:10;;;;;;;43.20;6.22;;;;;;;18.12;37.36;101012.41;2077453;28;20048;-76
2022/04/03 00:15:32;;;;;;;51.78;6.10;;;;;;;18.11;37.53;101007.09;2076794;28;20038;-76
2022/04/03 00:16:57;;;;;;;30.02;4.03;;;;;;;18.07;37.71;101011.56;2054317;28;20041;-77
2022/04/03 00:18:20;;;;;;;56.67;7.35;;;;;;;18.03;37.89;101012.53;2072683;28;20053;-77
2022/04/03 00:19:43;;;;;;;33.10;4.60;;;;;;;17.99;38.01;101009.88;2074778;28;20045;-77
2022/04/03 00:21:06;;;;;;;23.73;4.93;;;;;;;17.95;38.11;101014.38;2078743;28;20057;-77
2022/04/03 00:22:29;;;;;;;63.65;7.63;;;;;;;17.92;38.13;101015.28;2072591;28;20131;-77
2022/04/03 00:23:51;;;;;;;45.35;7.05;;;;;;;17.90;38.11;101019.78;2069044;28;20061;-77
2022/04/03 00:25:14;;;;;;;39.33;5.90;;;;;;;17.88;38.31;101002.00;2077998;28;20050;-77
2022/04/03 00:26:37;;;;;;;45.35;6.80;;;;;;;17.86;38.31;101011.78;2075940;28;20056;-77
2022/04/03 00:28:01;;;;;;;59.17;6.60;;;;;;;17.86;38.34;101012.69;2074658;28;20278;-76
2022/04/03 00:29:26;;;;;;;63.55;7.07;;;;;;;17.83;38.46;101017.19;2078722;28;20059;-76
2022/04/03 00:30:47;;;;;;;58.10;8.52;;;;;;;17.80;38.63;101023.44;2070292;28;20061;-77
2022/04/03 00:32:11;;;;;;;57.33;6.60;;;;;;;17.78;38.82;101022.59;2075714;28;20395;-77
2022/04/03 00:33:33;;;;;;;29.27;3.72;;;;;;;17.73;39.12;101035.06;2080420;28;20050;-76
2022/04/03 00:34:55;;;;;;;46.67;5.95;;;;;;;17.68;39.34;101023.56;2070534;28;20073;-77
2022/04/03 00:36:17;;;;;;;47.88;7.40;;;;;;;17.63;39.75;101029.84;2078577;28;20661;-77
2022/04/03 00:37:40;;;;;;;63.72;8.18;;;;;;;17.59;39.71;101038.75;2074190;28;20145;-76
2022/04/03 00:39:02;;;;;;;28.80;4.25;;;;;;;17.56;39.87;101041.44;2070008;28;20559;-76
2022/04/03 00:40:26;;;;;;;59.00;8.43;;;;;;;17.53;39.93;101043.22;2070551;28;20045;-79
2022/04/03 00:41:49;;;;;;;52.85;7.43;;;;;;;17.51;40.16;101053.06;2078577;28;20429;-77
2022/04/03 00:43:13;;;;;;;47.50;6.68;;;;;;;17.48;40.42;101062.84;2064814;28;20050;-77
2022/04/03 00:44:37;;;;;;;46.22;6.35;;;;;;;17.44;40.54;101059.34;2071645;28;20080;-77
2022/04/03 00:46:01;;;;;;;50.88;6.07;;;;;;;17.41;40.72;101061.13;2080159;28;20038;-77
2022/04/03 00:47:25;;;;;;;41.05;4.80;;;;;;;17.36;40.93;101066.50;2065134;28;20042;-76
2022/04/03 00:48:49;;;;;;;48.58;7.13;;;;;;;17.33;40.99;101070.97;2073366;28;20049;-77
2022/04/03 00:50:12;;;;;;;30.95;5.63;;;;;;;17.30;41.15;101079.91;2078854;28;20140;-76
2022/04/03 00:51:35;;;;;;;39.67;6.78;;;;;;;17.29;41.07;101082.56;2070646;28;20053;-77
2022/04/03 00:52:59;;;;;;;54.65;6.93;;;;;;;17.27;41.18;101090.56;2068526;28;20119;-77
2022/04/03 00:54:23;;;;;;;59.13;7.85;;;;;;;17.26;41.31;101087.94;2076143;28;20527;-77
2022/04/03 00:55:46;;;;;;;51.60;6.47;;;;;;;17.24;41.26;101084.38;2076607;28;20033;-77
2022/04/03 00:57:09;;;;;;;30.85;4.72;;;;;;;17.21;41.34;101095.94;2069485;28;20052;-77
2022/04/03 00:58:32;;;;;;;32.85;6.13;;;;;;;17.17;41.43;101094.22;2078998;28;20042;-77
2022/04/03 00:59:55;;;;;;;62.70;7.38;;;;;;;17.16;41.40;101092.44;2077800;28;20057;-77
2022/04/03 01:01:18;;;;;;;38.20;5.35;;;;;;;17.17;41.25;101104.88;2080051;28;20034;-77
2022/04/03 01:02:42;;;;;;;54.80;7.95;;;;;;;17.20;41.32;101099.50;2077503;28;20049;-76
2022/04/03 01:04:06;;;;;;;47.33;6.45;;;;;;;17.22;40.97;101094.16;2077732;28;20073;-77
2022/04/03 01:05:27;;;;;;;37.55;6.82;;;;;;;17.23;40.76;101088.84;2076703;28;20053;-76
2022/04/03 01:06:50;;;;;;;40.70;7.65;;;;;;;17.25;40.70;101096.84;2077276;28;20072;-76
2022/04/03 01:08:13;;;;;;;43.38;6.03;;;;;;;17.27;40.53;101093.25;2071974;28;20096;-76
2022/04/03 01:09:36;;;;;;;54.08;6.78;;;;;;;17.31;40.33;101103.03;2083922;28;20587;-76
2022/04/03 01:11:00;;;;;;;59.15;8.25;;;;;;;17.32;40.35;101109.25;2089137;28;20446;-76
2022/04/03 01:12:21;;;;;;;58.83;8.23;;;;;;;17.31;40.29;101100.34;2079965;28;20076;-77
2022/04/03 01:13:47;;;;;;;51.15;7.13;;;;;;;17.32;40.29;101103.91;2078296;28;20048;-76
2022/04/03 01:15:09;;;;;;;63.42;5.93;;;;;;;17.31;40.20;101104.81;2078862;28;20056;-76
2022/04/03 01:16:33;;;;;;;56.47;8.07;;;;;;;17.30;40.19;101103.03;2075615;28;20049;-76
2022/04/03 01:17:56;;;;;;;67.53;6.40;;;;;;;17.31;40.25;101099.47;2068004;28;20042;-76
2022/04/03 01:19:18;;;;;;;54.58;8.10;;;;;;;17.28;40.31;101103.03;2077894;28;20127;-76
2022/04/03 01:20:40;;;;;;;54.65;5.13;;;;;;;17.27;40.38;101111.03;2078580;28;20033;-76
2022/04/03 01:22:02;;;;;;;41.53;5.40;;;;;;;17.25;40.37;101105.72;2078239;28;20057;-76
2022/04/03 01:23:26;;;;;;;45.88;5.60;;;;;;;17.25;40.19;101103.06;2078162;28;20042;-76
2022/04/03 01:24:49;;;;;;;61.70;9.20;;;;;;;17.28;40.10;101097.69;2072248;28;20054;-76
2022/04/03 01:26:12;;;;;;;54.53;7.07;;;;;;;17.31;40.11;101097.69;2069759;28;20433;-76
2022/04/03 01:27:35;;;;;;;51.70;7.75;;;;;;;17.30;40.11;101095.91;2076577;28;20110;-76
2022/04/03 01:28:58;;;;;;;83.38;8.10;;;;;;;17.29;40.16;101093.25;2067224;28;20046;-76
2022/04/03 01:30:21;;;;;;;48.85;5.95;;;;;;;17.28;40.16;101100.34;2070156;28;20046;-76
2022/04/03 01:31:42;;;;;;;43.70;5.93;;;;;;;17.25;40.17;101092.38;2075425;28;20134;-76
2022/04/03 01:33:05;;;;;;;46.60;6.88;;;;;;;17.24;40.12;101095.94;2069133;28;20044;-79
2022/04/03 01:34:30;;;;;;;47.17;6.38;;;;;;;17.24;40.06;101090.63;2075727;28;20055;-78
2022/04/03 01:35:54;;;;;;;50.13;8.82;;;;;;;17.22;40.22;101092.41;2079948;28;20417;-79
2022/04/03 01:37:18;;;;;;;60.10;6.75;;;;;;;17.20;40.22;101096.84;2077897;28;20501;-76
2022/04/03 01:38:41;;;;;;;63.28;8.32;;;;;;;17.17;40.19;101091.53;2077425;28;20092;-76
2022/04/03 01:40:05;;;;;;;64.10;6.53;;;;;;;17.17;40.29;101094.22;2070396;28;20867;-77
2022/04/03 01:41:29;;;;;;;57.15;5.90;;;;;;;17.17;40.21;101088.00;2075488;28;20045;-77
2022/04/03 01:42:51;;;;;;;55.63;7.25;;;;;;;17.15;40.24;101096.00;2076515;28;20359;-76
2022/04/03 01:44:14;;;;;;;53.80;6.38;;;;;;;17.12;40.26;101096.91;2079879;28;20045;-76
2022/04/03 01:45:36;;;;;;;56.47;7.65;;;;;;;17.12;40.23;101098.69;2077533;28;20145;-77
2022/04/03 01:46:59;;;;;;;42.78;5.93;;;;;;;17.10;39.98;101095.13;2075373;28;20401;-77
2022/04/03 01:48:21;;;;;;;49.63;5.25;;;;;;;17.08;40.34;101092.47;2068434;28;20041;-77
2022/04/03 01:49:45;;;;;;;76.32;11.30;;;;;;;17.07;40.47;101095.16;2075518;28;20481;-77
2022/04/03 01:51:07;;;;;;;52.00;7.10;;;;;;;17.04;40.46;101097.84;2077882;28;20045;-77
2022/04/03 01:52:30;;;;;;;59.22;8.55;;;;;;;17.02;40.65;101094.28;2085622;28;20436;-77
2022/04/03 01:53:51;;;;;;;51.58;7.45;;;;;;;16.98;40.79;101098.78;2072096;28;20050;-77
2022/04/03 01:55:15;;;;;;;51.42;6.38;;;;;;;16.95;40.90;101095.22;2069626;28;20073;-77
2022/04/03 01:56:38;;;;;;;52.13;9.88;;;;;;;16.94;40.90;101090.78;2083785;28;20045;-77
2022/04/03 01:58:08;;;;;;;58.58;6.95;;;;;;;16.89;41.08;101089.91;2088908;28;20133;-76
2022/04/03 01:59:30;;;;;;;53.40;8.23;;;;;;;16.85;41.20;101088.16;2064107;28;20042;-77
2022/04/03 02:00:53;;;;;;;53.20;7.07;;;;;;;16.81;41.23;101087.28;2074621;28;20386;-76
2022/04/03 02:02:15;;;;;;;64.55;7.78;;;;;;;16.79;41.35;101088.19;2068997;28;20053;-76
2022/04/03 02:03:37;;;;;;;52.97;7.57;;;;;;;16.77;41.45;101092.66;2077180;28;20516;-76
2022/04/03 02:05:01;;;;;;;51.47;5.25;;;;;;;16.71;41.48;101086.44;2080637;28;20038;-76
2022/04/03 02:06:22;;;;;;;43.83;5.30;;;;;;;16.69;41.54;101090.91;2084488;28;20049;-76
2022/04/03 02:07:45;;;;;;;62.08;8.18;;;;;;;16.61;41.84;101091.81;2071432;28;20514;-77
2022/04/03 02:09:08;;;;;;;50.22;8.63;;;;;;;16.42;42.47;101088.28;2074382;28;20675;-76
2022/04/03 02:10:32;;;;;;;54.55;6.00;;;;;;;16.24;42.96;101091.00;2061088;28;20532;-75
2022/04/03 02:11:57;;;;;;;47.38;7.78;;;;;;;16.15;43.38;101085.69;2073754;28;20049;-76
2022/04/03 02:13:20;;;;;;;58.63;7.63;;;;;;;16.11;43.28;101083.94;2079753;28;20043;-76
2022/04/03 02:14:43;;;;;;;45.90;7.35;;;;;;;16.15;43.13;101086.56;2068361;28;20046;-76
2022/04/03 02:16:04;;;;;;;44.53;6.32;;;;;;;16.17;42.95;101075.94;2074290;28;20041;-75
2022/04/03 02:17:27;;;;;;;48.00;5.32;;;;;;;16.20;42.87;101070.59;2076984;28;20053;-75
2022/04/03 02:18:50;;;;;;;43.17;6.72;;;;;;;16.22;42.66;101074.13;2077891;28;20128;-76
2022/04/03 02:20:13;;;;;;;63.53;7.15;;;;;;;16.23;42.79;101073.25;2068962;28;20658;-76
2022/04/03 02:21:35;;;;;;;66.93;5.97;;;;;;;16.24;42.60;101077.69;2078133;28;20061;-75
2022/04/03 02:22:58;;;;;;;57.90;8.95;;;;;;;16.26;42.49;101073.25;2084636;28;20078;-76
2022/04/03 02:24:20;;;;;;;50.65;6.10;;;;;;;16.25;42.54;101075.03;2074377;28;20042;-76
2022/04/03 02:25:43;;;;;;;40.05;5.30;;;;;;;16.23;42.67;101070.59;2067226;28;20569;-76
2022/04/03 02:27:06;;;;;;;55.40;7.60;;;;;;;16.22;42.62;101084.78;2076409;28;20485;-75
2022/04/03 02:28:29;;;;;;;47.75;5.22;;;;;;;16.21;42.57;101083.03;2071957;28;20057;-76
2022/04/03 02:29:51;;;;;;;37.85;5.00;;;;;;;16.18;42.70;101085.69;2069639;28;20050;-76
2022/04/03 02:31:15;;;;;;;52.55;5.97;;;;;;;16.13;42.83;101085.72;2075145;28;20520;-75
2022/04/03 02:32:38;;;;;;;49.42;7.82;;;;;;;16.00;43.25;101091.06;2077741;28;20398;-76
2022/04/03 02:34:00;;;;;;;45.95;5.70;;;;;;;15.84;43.79;101096.41;2077016;28;20038;-76
2022/04/03 02:35:23;;;;;;;57.55;5.88;;;;;;;15.71;44.15;101089.28;2077643;28;20120;-76
2022/04/03 02:36:46;;;;;;;61.90;5.75;;;;;;;15.66;44.33;101087.53;2077429;28;20437;-76
2022/04/03 02:38:07;;;;;;;58.10;6.07;;;;;;;15.65;44.49;101089.31;2076299;28;20054;-75
2022/04/03 02:39:30;;;;;;;60.03;6.22;;;;;;;15.67;44.47;101092.88;2063771;28;20131;-76
2022/04/03 02:40:53;;;;;;;46.20;6.15;;;;;;;15.69;44.37;101087.50;2067182;28;20402;-78
2022/04/03 02:42:17;;;;;;;43.92;5.18;;;;;;;15.72;44.30;101091.09;2064054;28;20042;-75
2022/04/03 02:43:40;;;;;;;59.13;7.63;;;;;;;15.71;44.24;101093.72;2066700;28;20045;-76
2022/04/03 02:45:03;;;;;;;40.60;5.18;;;;;;;15.68;44.26;101088.44;2069748;28;20149;-76
2022/04/03 02:46:26;;;;;;;61.20;7.75;;;;;;;15.64;44.35;101090.19;2065771;28;20053;-79
2022/04/03 02:47:49;;;;;;;32.88;4.47;;;;;;;15.60;44.54;101088.44;2075132;28;20144;-76
2022/04/03 02:49:12;;;;;;;46.85;8.05;;;;;;;15.53;44.79;101095.50;2085858;28;20136;-75
2022/04/03 02:50:35;;;;;;;53.28;5.35;;;;;;;15.49;44.95;101092.81;2080070;28;20045;-76
2022/04/03 02:51:57;;;;;;;52.65;8.23;;;;;;;15.44;45.13;101090.13;2077917;28;20037;-76
2022/04/03 02:53:20;;;;;;;47.63;7.18;;;;;;;15.35;45.45;101095.47;2078955;28;20502;-76
2022/04/03 02:54:41;;;;;;;59.63;10.13;;;;;;;15.28;45.49;101098.13;2069765;28;20073;-76
2022/04/03 02:56:04;;;;;;;47.38;5.93;;;;;;;15.18;45.84;101096.31;2068715;28;20053;-75
2022/04/03 02:57:27;;;;;;;42.35;6.25;;;;;;;15.09;46.03;101102.50;2070715;28;20061;-76
2022/04/03 02:58:50;;;;;;;54.33;6.25;;;;;;;15.01;46.23;101098.94;2068769;28;20140;-76
2022/04/03 03:00:14;;;;;;;46.35;7.40;;;;;;;14.92;46.62;101107.75;2066167;28;20038;-75
2022/04/03 03:01:38;;;;;;;60.90;7.55;;;;;;;14.88;46.51;101092.69;2074445;28;20053;-75
2022/04/03 03:03:02;;;;;;;45.00;6.13;;;;;;;14.90;46.43;101104.19;2069390;28;20168;-76
2022/04/03 03:04:24;;;;;;;39.72;5.60;;;;;;;14.90;46.25;101103.34;2085709;28;20048;-75
2022/04/03 03:05:46;;;;;;;51.08;7.25;;;;;;;14.94;46.21;101106.00;2071209;28;20041;-76
2022/04/03 03:07:11;;;;;;;49.40;6.82;;;;;;;14.95;46.17;101102.47;2068330;28;20100;-75
2022/04/03 03:08:33;;;;;;;48.40;5.50;;;;;;;14.89;46.25;101110.41;2066538;28;20046;-75
2022/04/03 03:09:55;;;;;;;42.58;6.07;;;;;;;14.86;46.28;101101.53;2074896;28;20128;-76
2022/04/03 03:11:17;;;;;;;65.63;5.93;;;;;;;14.83;46.33;101107.75;2077029;28;20083;-76
2022/04/03 03:12:41;;;;;;;44.22;6.53;;;;;;;14.86;46.19;101106.84;2084498;28;20057;-76
2022/04/03 03:14:04;;;;;;;38.90;5.10;;;;;;;14.84;46.24;101106.84;2080043;28;20546;-76
2022/04/03 03:15:27;;;;;;;49.03;5.07;;;;;;;14.80;46.27;101106.81;2080286;28;20136;-76
2022/04/03 03:16:48;;;;;;;30.25;5.35;;;;;;;14.70;46.38;101114.75;2068543;28;20057;-76
2022/04/03 03:18:11;;;;;;;35.42;4.75;;;;;;;14.64;46.54;101124.47;2074104;28;20044;-75
2022/04/03 03:19:32;;;;;;;31.40;4.50;;;;;;;14.60;46.64;101120.91;2071967;28;20129;-76
2022/04/03 03:20:55;;;;;;;40.28;6.60;;;;;;;14.58;46.70;101129.75;2077251;28;20558;-76
2022/04/03 03:22:17;;;;;;;43.20;6.72;;;;;;;14.60;46.56;101131.53;2071617;28;20050;-76
2022/04/03 03:23:40;;;;;;;49.83;3.95;;;;;;;14.64;46.39;101135.09;2073212;28;20616;-76
2022/04/03 03:25:06;;;;;;;43.08;8.70;;;;;;;14.61;46.48;101130.66;2069263;28;20068;-75
2022/04/03 03:26:29;;;;;;;46.35;6.82;;;;;;;14.59;46.61;101137.72;2083498;28;20041;-76
2022/04/03 03:27:53;;;;;;;41.75;4.97;;;;;;;14.64;46.28;101130.66;2068857;28;20121;-76
2022/04/03 03:29:14;;;;;;;53.80;7.82;;;;;;;14.71;46.13;101131.59;2077241;28;20111;-76
2022/04/03 03:30:37;;;;;;;38.97;5.82;;;;;;;14.77;46.03;101136.94;2079037;28;20045;-76
2022/04/03 03:31:58;;;;;;;53.42;7.35;;;;;;;14.79;45.91;101128.97;2077282;28;20066;-75
2022/04/03 03:33:21;;;;;;;45.47;5.70;;;;;;;14.84;45.95;101137.84;2076405;28;20723;-75
2022/04/03 03:34:42;;;;;;;42.75;6.13;;;;;;;14.87;45.81;101128.13;2061240;28;20145;-76
2022/04/03 03:36:05;;;;;;;37.65;5.93;;;;;;;14.92;45.69;101128.13;2073123;28;20076;-77
2022/04/03 03:37:27;;;;;;;45.50;6.30;;;;;;;14.94;45.78;101127.28;2080747;28;20045;-77
2022/04/03 03:38:49;;;;;;;29.85;5.32;;;;;;;14.98;45.71;101130.81;2076399;28;20476;-76
2022/04/03 03:40:14;;;;;;;41.65;5.25;;;;;;;14.99;45.67;101141.47;2068329;28;20648;-76
2022/04/03 03:41:35;;;;;;;39.42;6.97;;;;;;;15.02;45.72;101148.56;2069287;28;20446;-76
2022/04/03 03:43:00;;;;;;;38.70;6.07;;;;;;;15.03;45.66;101153.88;2073860;28;20525;-76
2022/04/03 03:44:21;;;;;;;49.97;5.03;;;;;;;15.01;45.57;101155.66;2076547;28;20038;-76
2022/04/03 03:45:44;;;;;;;36.58;5.25;;;;;;;14.87;45.93;101149.41;2076049;28;20054;-76
2022/04/03 03:47:08;;;;;;;35.15;4.57;;;;;;;14.75;46.23;101159.97;2068013;28;20056;-77
2022/04/03 03:48:32;;;;;;;36.53;5.43;;;;;;;14.68;46.41;101158.16;2066782;28;20072;-76
2022/04/03 03:49:54;;;;;;;47.05;7.35;;;;;;;14.54;46.55;101162.50;2067900;28;20058;-76
2022/04/03 03:51:16;;;;;;;49.30;5.85;;;;;;;14.38;47.04;101157.97;2074835;28;20034;-76
2022/04/03 03:52:38;;;;;;;39.92;6.20;;;;;;;14.34;47.23;101167.66;2070836;28;20045;-76
2022/04/03 03:54:01;;;;;;;36.55;6.18;;;;;;;14.34;47.26;101170.31;2060544;28;20057;-77
2022/04/03 03:55:24;;;;;;;51.25;6.18;;;;;;;14.31;47.32;101167.63;2069026;28;20046;-76
2022/04/03 03:56:46;;;;;;;44.70;5.90;;;;;;;14.26;47.45;101180.00;2077229;28;20148;-77
2022/04/03 03:58:11;;;;;;;28.55;4.50;;;;;;;14.17;47.59;101185.25;2073928;28;20042;-77
2022/04/03 03:59:34;;;;;;;32.08;6.25;;;;;;;14.03;47.87;101182.47;2068420;28;20406;-77
2022/04/03 04:00:56;;;;;;;39.15;5.30;;;;;;;13.95;47.93;101193.03;2080969;28;20044;-76
2022/04/03 04:02:18;;;;;;;55.95;5.25;;;;;;;13.91;48.07;101193.88;2079174;28;20386;-77
2022/04/03 04:03:41;;;;;;;49.13;6.05;;;;;;;13.89;48.10;101197.41;2077091;28;20048;-77
2022/04/03 04:05:04;;;;;;;33.53;4.15;;;;;;;13.89;48.22;101200.06;2076114;28;20056;-77
2022/04/03 04:06:26;;;;;;;38.35;4.28;;;;;;;13.86;48.11;101205.31;2084950;28;20107;-77
2022/04/03 04:07:49;;;;;;;31.20;3.90;;;;;;;13.82;48.13;101209.72;2076117;28;20041;-77
2022/04/03 04:09:12;;;;;;;29.92;4.47;;;;;;;13.84;48.15;101212.41;2077985;28;20052;-78
2022/04/03 04:10:35;;;;;;;32.33;3.95;;;;;;;13.90;47.98;101220.41;2070887;28;20046;-76
2022/04/03 04:11:59;;;;;;;33.65;5.07;;;;;;;13.97;47.77;101214.28;2058243;28;20050;-78
2022/04/03 04:13:24;;;;;;;50.03;6.68;;;;;;;14.07;47.59;101217.91;2082769;28;20053;-79
2022/04/03 04:14:46;;;;;;;39.33;6.05;;;;;;;14.17;47.31;101223.31;2071301;28;20042;-78
2022/04/03 04:16:09;;;;;;;46.53;6.75;;;;;;;14.28;47.18;101218.97;2073959;28;20049;-79
2022/04/03 04:17:35;;;;;;;38.70;5.35;;;;;;;14.36;47.13;101225.25;2078577;28;20041;-78
2022/04/03 04:18:59;;;;;;;54.80;5.45;;;;;;;14.41;47.10;101219.97;2075016;28;20065;-77
2022/04/03 04:20:22;;;;;;;40.45;6.95;;;;;;;14.48;46.90;101224.47;2068360;28;20069;-78
2022/04/03 04:21:45;;;;;;;35.20;5.90;;;;;;;14.51;47.02;101221.81;2065430;28;20046;-77
2022/04/03 04:23:07;;;;;;;49.38;7.30;;;;;;;14.54;47.12;101223.63;2065932;28;20056;-76
2022/04/03 04:24:30;;;;;;;47.08;4.82;;;;;;;14.55;47.20;101226.28;2077084;28;20118;-76
2022/04/03 04:25:52;;;;;;;41.30;6.10;;;;;;;14.56;47.33;101227.19;2070063;28;20127;-76
2022/04/03 04:27:14;;;;;;;35.40;5.90;;;;;;;14.57;47.31;101229.81;2069833;28;20133;-76
2022/04/03 04:28:39;;;;;;;31.10;5.25;;;;;;;14.59;47.37;101228.06;2060302;28;20073;-76
2022/04/03 04:30:00;;;;;;;46.63;6.72;;;;;;;14.54;47.47;101236.91;2066006;28;20080;-76
2022/04/03 04:31:24;;;;;;;49.30;8.77;;;;;;;14.52;47.67;101230.69;2058360;28;20137;-76
2022/04/03 04:32:46;;;;;;;58.55;6.20;;;;;;;14.55;47.74;101228.06;2067320;28;20140;-76
2022/04/03 04:34:09;;;;;;;51.47;5.50;;;;;;;14.59;47.74;101237.81;2065822;28;20042;-76
2022/04/03 04:35:32;;;;;;;43.70;5.65;;;;;;;14.63;47.87;101234.31;2072090;28;20091;-76
2022/04/03 04:36:55;;;;;;;31.92;4.63;;;;;;;14.69;47.77;101235.25;2077163;28;20095;-76
2022/04/03 04:38:19;;;;;;;41.97;5.85;;;;;;;14.78;47.79;101229.06;2069066;28;20058;-76
2022/04/03 04:39:42;;;;;;;49.30;7.10;;;;;;;14.86;47.87;101242.41;2073118;28;20037;-77
2022/04/03 04:41:05;;;;;;;34.30;4.68;;;;;;;14.92;47.83;101246.00;2079145;28;20104;-76
2022/04/03 04:42:27;;;;;;;45.30;5.50;;;;;;;14.98;47.92;101243.38;2066847;28;20564;-76
2022/04/03 04:43:52;;;;;;;31.77;5.82;;;;;;;15.07;47.76;101248.75;2066164;28;20141;-77
2022/04/03 04:45:16;;;;;;;52.50;5.82;;;;;;;15.12;47.97;101241.69;2061335;28;20065;-77
2022/04/03 04:46:39;;;;;;;41.53;4.82;;;;;;;15.21;47.81;101243.50;2066232;28;20789;-77
2022/04/03 04:48:01;;;;;;;48.45;6.63;;;;;;;15.28;47.97;101239.09;2076956;28;20375;-78
2022/04/03 04:49:27;;;;;;;42.97;6.65;;;;;;;15.38;48.01;101247.09;2067200;28;20050;-77
2022/04/03 04:50:53;;;;;;;38.67;6.30;;;;;;;15.44;47.85;101249.78;2074314;28;20045;-77
2022/04/03 04:52:18;;;;;;;58.90;6.53;;;;;;;15.51;47.83;101256.91;2068039;28;20045;-78
2022/04/03 04:53:42;;;;;;;41.85;4.47;;;;;;;15.61;47.92;101260.53;2069175;28;20137;-77
2022/04/03 04:55:07;;;;;;;46.50;5.85;;;;;;;15.67;47.92;101263.22;2076483;28;20287;-77
2022/04/03 04:56:33;;;;;;;32.53;5.13;;;;;;;15.68;47.85;101258.78;2089757;28;20676;-76
2022/04/03 04:58:01;;;;;;;29.33;4.22;;;;;;;15.75;47.97;101252.59;2070636;28;20050;-77
2022/04/03 04:59:25;;;;;;;32.67;4.75;;;;;;;15.77;47.82;101258.78;2066115;28;20038;-77
2022/04/03 05:00:48;;;;;;;50.92;4.90;;;;;;;15.77;47.74;101254.34;2070930;28;20053;-77
2022/04/03 05:02:12;;;;;;;47.88;8.10;;;;;;;15.82;47.68;101257.91;2069878;28;20030;-76
2022/04/03 05:03:34;;;;;;;38.85;5.50;;;;;;;15.91;47.61;101257.03;2081059;28;20568;-77
2022/04/03 05:04:57;;;;;;;46.28;6.22;;;;;;;16.03;47.43;101258.81;2077187;28;20052;-77
2022/04/03 05:06:22;;;;;;;31.83;5.10;;;;;;;16.15;47.40;101254.41;2082116;28;20057;-77
2022/04/03 05:07:44;;;;;;;40.15;6.20;;;;;;;16.31;47.34;101250.88;2079122;28;20041;-77
2022/04/03 05:09:07;;;;;;;38.55;6.10;;;;;;;16.50;47.12;101258.84;2077064;28;20072;-75
2022/04/03 05:10:31;;;;;;;40.88;6.05;;;;;;;16.63;47.32;101253.53;2070044;28;20052;-76
2022/04/03 05:11:55;;;;;;;36.70;5.72;;;;;;;16.77;47.27;101260.63;2070009;28;20441;-76
2022/04/03 05:13:19;;;;;;;59.35;5.05;;;;;;;16.88;47.27;101250.81;2075767;28;20095;-80
2022/04/03 05:14:44;;;;;;;45.03;6.95;;;;;;;17.02;47.03;101259.69;2067699;28;20053;-77
2022/04/03 05:16:08;;;;;;;42.25;5.75;;;;;;;17.07;46.89;101255.22;2059261;28;20054;-77
2022/04/03 05:17:29;;;;;;;38.60;6.32;;;;;;;17.09;47.05;101259.66;2083933;28;20045;-78
2022/04/03 05:18:52;;;;;;;47.60;5.53;;;;;;;17.14;47.14;101267.63;2079266;28;20099;-79
2022/04/03 05:20:15;;;;;;;45.72;9.45;;;;;;;17.19;47.26;101271.19;2080039;28;20046;-81
2022/04/03 05:21:38;;;;;;;36.42;6.10;;;;;;;17.19;47.21;101276.53;2070203;28;20046;-79
2022/04/03 05:23:01;;;;;;;41.58;5.10;;;;;;;17.22;47.13;101272.94;2061164;28;20502;-78
2022/04/03 05:24:22;;;;;;;39.22;6.28;;;;;;;17.27;47.15;101272.03;2066697;28;20046;-76
2022/04/03 05:25:45;;;;;;;41.00;6.60;;;;;;;17.40;47.21;101276.44;2075166;28;20057;-79
2022/04/03 05:27:08;;;;;;;42.33;6.28;;;;;;;17.56;47.11;101284.38;2072486;28;20137;-77
2022/04/03 05:28:30;;;;;;;54.65;6.10;;;;;;;17.69;47.05;101286.13;2078370;28;20744;-77
2022/04/03 05:29:54;;;;;;;46.08;5.72;;;;;;;17.84;46.99;101291.41;2071262;28;20072;-77
2022/04/03 05:31:17;;;;;;;56.25;6.53;;;;;;;17.99;46.81;101287.72;2077592;28;20557;-78
2022/04/03 05:32:39;;;;;;;41.13;5.60;;;;;;;18.13;46.68;101293.88;2076557;28;20092;-76
2022/04/03 05:34:02;;;;;;;48.05;7.90;;;;;;;18.21;46.47;101292.03;2076404;28;20041;-76
2022/04/03 05:35:24;;;;;;;56.42;8.50;;;;;;;18.32;46.14;101291.06;2068628;28;20046;-76
2022/04/03 05:36:47;;;;;;;38.30;5.40;;;;;;;18.43;46.03;101293.66;2063601;28;20488;-77
2022/04/03 05:38:10;;;;;;;38.42;7.15;;;;;;;18.48;45.67;101293.63;2072511;28;20448;-77
2022/04/03 05:39:33;;;;;;;44.40;7.28;;;;;;;18.46;45.64;101285.59;2077538;28;20045;-77
2022/04/03 05:40:56;;;;;;;50.83;7.45;;;;;;;18.42;45.77;101294.56;2071440;28;20536;-77
2022/04/03 05:42:18;;;;;;;43.50;8.15;;;;;;;18.38;45.78;101292.78;2075394;28;20080;-76
2022/04/03 05:43:41;;;;;;;65.00;10.48;;;;;;;18.38;46.11;101294.59;2069314;28;20041;-77
2022/04/03 05:45:09;;;;;;;49.30;8.90;;;;;;;18.46;46.05;101304.31;2070694;28;20065;-77
2022/04/03 05:46:32;;;;;;;47.67;7.20;;;;;;;18.54;45.97;101293.56;2077622;28;20064;-77
2022/04/03 05:47:55;;;;;;;57.67;8.45;;;;;;;18.69;46.05;101296.16;2080666;28;20060;-77
2022/04/03 05:49:17;;;;;;;53.05;7.38;;;;;;;18.81;46.08;101303.16;2071033;28;20528;-77
2022/04/03 05:50:40;;;;;;;53.55;6.82;;;;;;;18.96;46.21;101306.59;2078164;28;20057;-77
2022/04/03 05:52:03;;;;;;;33.42;5.03;;;;;;;19.11;46.19;101311.75;2079184;28;20053;-76
2022/04/03 05:53:26;;;;;;;51.53;12.00;;;;;;;19.29;46.13;101313.38;2079706;28;20506;-80
2022/04/03 05:54:49;;;;;;;47.60;5.85;;;;;;;19.49;46.00;101307.81;2075386;28;20045;-79
2022/04/03 05:56:12;;;;;;;50.30;8.00;;;;;;;19.71;45.98;101308.41;2076729;28;20244;-77
2022/04/03 05:57:33;;;;;;;45.45;7.03;;;;;;;19.90;45.70;101310.81;2075832;28;20068;-77
2022/04/03 05:58:56;;;;;;;50.78;8.13;;;;;;;20.07;45.52;101307.03;2067651;28;20080;-77
2022/04/03 06:00:23;;;;;;;59.72;8.27;;;;;;;20.22;45.27;101312.16;2066772;28;20041;-77
2022/04/03 06:01:44;;;;;;;57.05;8.98;;;;;;;20.32;45.38;101313.78;2082360;28;20428;-76
2022/04/03 06:03:07;;;;;;;49.88;8.75;;;;;;;20.34;44.96;101322.75;2080068;28;20052;-77
2022/04/03 06:04:29;;;;;;;40.20;7.75;;;;;;;20.37;45.11;101321.78;2069572;28;20133;-77
2022/04/03 06:05:53;;;;;;;46.05;7.07;;;;;;;20.42;45.06;101317.22;2085740;28;20083;-76
2022/04/03 06:07:16;;;;;;;42.78;7.10;;;;;;;20.52;44.83;101321.56;2074305;28;20068;-77
2022/04/03 06:08:39;;;;;;;51.42;7.95;;;;;;;20.57;44.81;101325.03;2075907;28;20030;-77
2022/04/03 06:10:02;;;;;;;48.83;8.02;;;;;;;20.66;44.61;101322.22;2077627;28;20383;-76
2022/04/03 06:11:24;;;;;;;60.70;7.70;;;;;;;20.75;44.50;101319.34;2070127;28;20402;-77
2022/04/03 06:12:56;;;;;;;54.50;8.63;;;;;;;20.92;44.13;101322.66;2081422;28;20521;-77
2022/04/03 06:14:19;;;;;;;58.65;7.93;;;;;;;21.12;43.56;101330.34;2080005;28;20053;-78
2022/04/03 06:15:46;;;;;;;65.03;7.07;;;;;;;21.35;43.34;101321.84;2067575;28;20045;-78
2022/04/03 06:17:10;;;;;;;56.22;9.80;;;;;;;21.53;43.06;101323.31;2064718;28;20040;-77
2022/04/03 06:18:32;;;;;;;49.50;10.38;;;;;;;21.69;42.82;101331.00;2074041;28;20061;-77
2022/04/03 06:19:54;;;;;;;58.10;10.52;;;;;;;21.85;42.80;101329.78;2075028;28;20057;-77
2022/04/03 06:21:16;;;;;;;52.67;8.38;;;;;;;21.98;42.63;101330.44;2073787;28;20603;-78